sensor_id;sensor_type;location;lat;lon;timestamp;pressure;altitude;pressure_sealevel;temperature;humidity
68988;BME280;56038;46.080;11.116;2023-02-16T00:00:36;100642.47;;;4.58;51.55
68988;BME280;56038;46.080;11.116;2023-02-16T00:05:38;100641.56;;;4.50;51.70
68988;BME280;56038;46.080;11.116;2023-02-16T00:10:42;100638.09;;;4.46;51.37
68988;BME280;56038;46.080;11.116;2023-02-16T00:16:10;100643.22;;;4.40;52.38
68988;BME280;56038;46.080;11.116;2023-02-16T00:21:13;100642.34;;;4.37;52.94
68988;BME280;56038;46.080;11.116;2023-02-16T00:26:18;100639.72;;;4.26;53.89
68988;BME280;56038;46.080;11.116;2023-02-16T00:31:23;100643.97;;;4.21;53.74
68988;BME280;56038;46.080;11.116;2023-02-16T00:36:26;100642.25;;;4.18;53.41
68988;BME280;56038;46.080;11.116;2023-02-16T00:41:29;100637.91;;;4.16;54.01
68988;BME280;56038;46.080;11.116;2023-02-16T00:46:49;100638.78;;;4.13;53.72
68988;BME280;56038;46.080;11.116;2023-02-16T00:51:51;100636.97;;;4.05;53.87
68988;BME280;56038;46.080;11.116;2023-02-16T00:56:54;100642.13;;;4.00;54.18
68988;BME280;56038;46.080;11.116;2023-02-16T01:01:56;100643.81;;;3.95;54.01
68988;BME280;56038;46.080;11.116;2023-02-16T01:06:58;100637.72;;;3.88;54.11
68988;BME280;56038;46.080;11.116;2023-02-16T01:12:19;100635.97;;;3.83;53.95
68988;BME280;56038;46.080;11.116;2023-02-16T01:17:22;100630.72;;;3.75;54.31
68988;BME280;56038;46.080;11.116;2023-02-16T01:22:24;100634.25;;;3.80;53.80
68988;BME280;56038;46.080;11.116;2023-02-16T01:27:27;100620.41;;;3.75;53.90
68988;BME280;56038;46.080;11.116;2023-02-16T01:32:29;100617.66;;;3.55;55.90
68988;BME280;56038;46.080;11.116;2023-02-16T01:37:31;100627.09;;;3.47;56.99
68988;BME280;56038;46.080;11.116;2023-02-16T01:42:36;100621.00;;;3.45;56.93
68988;BME280;56038;46.080;11.116;2023-02-16T01:47:46;100614.94;;;3.40;56.57
68988;BME280;56038;46.080;11.116;2023-02-16T01:52:52;100617.50;;;3.36;56.11
68988;BME280;56038;46.080;11.116;2023-02-16T01:58:00;100610.59;;;3.33;56.66
68988;BME280;56038;46.080;11.116;2023-02-16T02:03:09;100604.47;;;3.23;57.46
68988;BME280;56038;46.080;11.116;2023-02-16T02:08:36;100600.09;;;3.16;56.97
68988;BME280;56038;46.080;11.116;2023-02-16T02:13:43;100606.06;;;3.11;57.12
68988;BME280;56038;46.080;11.116;2023-02-16T02:18:46;100600.06;;;3.13;56.72
68988;BME280;56038;46.080;11.116;2023-02-16T02:24:13;100590.66;;;3.17;58.84
68988;BME280;56038;46.080;11.116;2023-02-16T02:29:36;100585.44;;;3.15;56.97
68988;BME280;56038;46.080;11.116;2023-02-16T02:34:53;100585.53;;;3.21;56.71
68988;BME280;56038;46.080;11.116;2023-02-16T02:40:02;100582.94;;;3.21;56.16
68988;BME280;56038;46.080;11.116;2023-02-16T02:45:12;100585.50;;;3.18;56.23
68988;BME280;56038;46.080;11.116;2023-02-16T02:50:40;100576.06;;;3.22;57.33
68988;BME280;56038;46.080;11.116;2023-02-16T02:56:04;100579.50;;;3.21;55.40
68988;BME280;56038;46.080;11.116;2023-02-16T03:01:27;100582.06;;;3.18;55.58
68988;BME280;56038;46.080;11.116;2023-02-16T03:06:31;100575.97;;;3.14;56.14
68988;BME280;56038;46.080;11.116;2023-02-16T03:11:34;100564.75;;;3.08;56.32
68988;BME280;56038;46.080;11.116;2023-02-16T03:16:57;100572.47;;;3.05;55.93
68988;BME280;56038;46.080;11.116;2023-02-16T03:22:16;100574.97;;;2.98;55.99
68988;BME280;56038;46.080;11.116;2023-02-16T03:27:41;100576.66;;;2.96;56.04
68988;BME280;56038;46.080;11.116;2023-02-16T03:33:02;100573.25;;;2.99;55.74
68988;BME280;56038;46.080;11.116;2023-02-16T03:38:05;100580.16;;;3.00;55.97
68988;BME280;56038;46.080;11.116;2023-02-16T03:43:07;100582.69;;;2.98;55.56
68988;BME280;56038;46.080;11.116;2023-02-16T03:48:11;100575.78;;;2.94;55.86
68988;BME280;56038;46.080;11.116;2023-02-16T03:53:13;100577.47;;;2.91;55.78
68988;BME280;56038;46.080;11.116;2023-02-16T03:58:17;100580.94;;;2.93;56.28
68988;BME280;56038;46.080;11.116;2023-02-16T04:03:21;100586.09;;;2.94;55.69
68988;BME280;56038;46.080;11.116;2023-02-16T04:08:22;100588.63;;;2.85;56.28
68988;BME280;56038;46.080;11.116;2023-02-16T04:13:24;100589.47;;;2.84;56.42
68988;BME280;56038;46.080;11.116;2023-02-16T04:18:27;100589.47;;;2.84;56.13
68988;BME280;56038;46.080;11.116;2023-02-16T04:23:29;100591.19;;;2.85;55.79
68988;BME280;56038;46.080;11.116;2023-02-16T04:28:31;100588.63;;;2.85;55.55
68988;BME280;56038;46.080;11.116;2023-02-16T04:33:34;100584.38;;;2.92;55.24
68988;BME280;56038;46.080;11.116;2023-02-16T04:38:35;100590.38;;;2.91;55.30
68988;BME280;56038;46.080;11.116;2023-02-16T04:43:37;100589.53;;;2.93;55.13
68988;BME280;56038;46.080;11.116;2023-02-16T04:48:40;100591.28;;;2.94;55.11
68988;BME280;56038;46.080;11.116;2023-02-16T04:53:42;100587.75;;;2.86;55.27
68988;BME280;56038;46.080;11.116;2023-02-16T04:58:44;100585.09;;;2.82;55.80
68988;BME280;56038;46.080;11.116;2023-02-16T05:03:47;100577.31;;;2.77;55.99
68988;BME280;56038;46.080;11.116;2023-02-16T05:08:49;100576.44;;;2.75;56.31
68988;BME280;56038;46.080;11.116;2023-02-16T05:13:51;100583.28;;;2.70;56.41
68988;BME280;56038;46.080;11.116;2023-02-16T05:19:11;100582.34;;;2.65;56.60
68988;BME280;56038;46.080;11.116;2023-02-16T05:24:13;100584.03;;;2.60;57.23
68988;BME280;56038;46.080;11.116;2023-02-16T05:29:15;100583.13;;;2.56;57.18
68988;BME280;56038;46.080;11.116;2023-02-16T05:34:18;100580.59;;;2.61;56.54
68988;BME280;56038;46.080;11.116;2023-02-16T05:39:20;100574.59;;;2.63;56.69
68988;BME280;56038;46.080;11.116;2023-02-16T05:44:22;100584.06;;;2.66;57.42
68988;BME280;56038;46.080;11.116;2023-02-16T05:49:25;100597.72;;;2.56;57.48
68988;BME280;56038;46.080;11.116;2023-02-16T05:54:27;100597.69;;;2.53;57.64
68988;BME280;56038;46.080;11.116;2023-02-16T05:59:29;100587.38;;;2.53;57.30
68988;BME280;56038;46.080;11.116;2023-02-16T06:04:32;100596.78;;;2.49;57.54
68988;BME280;56038;46.080;11.116;2023-02-16T06:09:33;100607.19;;;2.57;57.04
68988;BME280;56038;46.080;11.116;2023-02-16T06:14:35;100603.84;;;2.64;56.60
68988;BME280;56038;46.080;11.116;2023-02-16T06:19:38;100622.78;;;2.67;56.20
68988;BME280;56038;46.080;11.116;2023-02-16T06:24:40;100618.56;;;2.71;56.29
68988;BME280;56038;46.080;11.116;2023-02-16T06:29:42;100625.41;;;2.69;56.68
68988;BME280;56038;46.080;11.116;2023-02-16T06:34:45;100631.50;;;2.77;56.43
68988;BME280;56038;46.080;11.116;2023-02-16T06:39:47;100634.16;;;2.83;56.66
68988;BME280;56038;46.080;11.116;2023-02-16T06:44:48;100640.25;;;2.88;56.54
68988;BME280;56038;46.080;11.116;2023-02-16T06:49:51;100644.19;;;3.35;62.72
68988;BME280;56038;46.080;11.116;2023-02-16T06:54:54;100645.06;;;3.40;57.48
68988;BME280;56038;46.080;11.116;2023-02-16T06:59:56;100645.88;;;3.33;57.70
68988;BME280;56038;46.080;11.116;2023-02-16T07:05:00;100642.50;;;3.40;57.21
68988;BME280;56038;46.080;11.116;2023-02-16T07:10:02;100652.81;;;3.40;57.04
68988;BME280;56038;46.080;11.116;2023-02-16T07:15:04;100649.38;;;3.41;56.62
68988;BME280;56038;46.080;11.116;2023-02-16T07:20:09;100647.84;;;3.61;55.40
68988;BME280;56038;46.080;11.116;2023-02-16T07:25:13;100653.09;;;3.72;55.29
68988;BME280;56038;46.080;11.116;2023-02-16T07:30:15;100657.53;;;3.85;54.98
68988;BME280;56038;46.080;11.116;2023-02-16T07:35:18;100658.53;;;4.05;55.01
68988;BME280;56038;46.080;11.116;2023-02-16T07:40:21;100660.47;;;4.41;56.08
68988;BME280;56038;46.080;11.116;2023-02-16T07:45:23;100656.28;;;4.59;55.15
68988;BME280;56038;46.080;11.116;2023-02-16T07:50:26;100665.78;;;4.63;54.17
68988;BME280;56038;46.080;11.116;2023-02-16T07:55:28;100666.66;;;4.68;54.03
68988;BME280;56038;46.080;11.116;2023-02-16T08:00:30;100667.56;;;4.82;54.45
68988;BME280;56038;46.080;11.116;2023-02-16T08:05:34;100663.25;;;4.82;54.15
68988;BME280;56038;46.080;11.116;2023-02-16T08:10:36;100659.84;;;4.90;53.66
68988;BME280;56038;46.080;11.116;2023-02-16T08:15:41;100658.19;;;5.08;53.42
68988;BME280;56038;46.080;11.116;2023-02-16T08:20:44;100666.84;;;5.29;52.95
68988;BME280;56038;46.080;11.116;2023-02-16T08:25:47;100666.88;;;5.44;52.40
68988;BME280;56038;46.080;11.116;2023-02-16T08:30:49;100670.34;;;5.63;51.63
68988;BME280;56038;46.080;11.116;2023-02-16T08:35:53;100664.31;;;5.79;51.21
68988;BME280;56038;46.080;11.116;2023-02-16T08:40:55;100653.94;;;5.87;50.79
68988;BME280;56038;46.080;11.116;2023-02-16T08:45:57;100652.22;;;6.07;51.05
68988;BME280;56038;46.080;11.116;2023-02-16T08:51:00;100653.91;;;6.29;50.72
68988;BME280;56038;46.080;11.116;2023-02-16T08:56:03;100649.50;;;6.60;50.09
68988;BME280;56038;46.080;11.116;2023-02-16T09:01:05;100648.56;;;6.83;49.20
68988;BME280;56038;46.080;11.116;2023-02-16T09:06:10;100650.09;;;7.20;48.62
68988;BME280;56038;46.080;11.116;2023-02-16T09:11:14;100655.06;;;7.53;48.04
68988;BME280;56038;46.080;11.116;2023-02-16T09:16:18;100649.56;;;7.94;47.32
68988;BME280;56038;46.080;11.116;2023-02-16T09:21:23;100646.06;;;8.79;46.92
68988;BME280;56038;46.080;11.116;2023-02-16T09:26:27;100648.13;;;9.20;44.49
68988;BME280;56038;46.080;11.116;2023-02-16T09:31:32;100649.44;;;9.50;42.83
68988;BME280;56038;46.080;11.116;2023-02-16T09:36:36;100640.38;;;10.24;40.91
68988;BME280;56038;46.080;11.116;2023-02-16T09:42:01;100642.88;;;10.73;39.48
68988;BME280;56038;46.080;11.116;2023-02-16T09:47:10;100633.59;;;11.76;39.09
68988;BME280;56038;46.080;11.116;2023-02-16T09:52:22;100630.81;;;12.50;37.67
68988;BME280;56038;46.080;11.116;2023-02-16T09:57:38;100627.09;;;12.88;36.93
68988;BME280;56038;46.080;11.116;2023-02-16T10:02:47;100622.50;;;13.26;35.62
68988;BME280;56038;46.080;11.116;2023-02-16T10:08:04;100621.50;;;13.56;35.99
68988;BME280;56038;46.080;11.116;2023-02-16T10:13:12;100617.84;;;14.13;36.62
68988;BME280;56038;46.080;11.116;2023-02-16T10:18:22;100609.69;;;14.46;34.49
68988;BME280;56038;46.080;11.116;2023-02-16T10:23:45;100612.97;;;14.76;34.14
68988;BME280;56038;46.080;11.116;2023-02-16T10:28:50;100608.38;;;15.04;33.43
68988;BME280;56038;46.080;11.116;2023-02-16T10:34:03;100597.63;;;15.32;33.95
68988;BME280;56038;46.080;11.116;2023-02-16T10:39:15;100586.66;;;15.21;32.40
68988;BME280;56038;46.080;11.116;2023-02-16T10:44:23;100580.41;;;15.45;33.81
68988;BME280;56038;46.080;11.116;2023-02-16T10:49:31;100579.38;;;15.49;32.87
68988;BME280;56038;46.080;11.116;2023-02-16T10:54:37;100562.97;;;15.65;32.55
68988;BME280;56038;46.080;11.116;2023-02-16T10:59:42;100558.97;;;15.97;32.32
68988;BME280;56038;46.080;11.116;2023-02-16T11:04:46;100551.31;;;15.91;31.40
68988;BME280;56038;46.080;11.116;2023-02-16T11:09:51;100547.16;;;15.85;31.46
68988;BME280;56038;46.080;11.116;2023-02-16T11:14:58;100532.13;;;16.07;31.41
68988;BME280;56038;46.080;11.116;2023-02-16T11:20:04;100531.75;;;16.54;30.58
68988;BME280;56038;46.080;11.116;2023-02-16T11:25:22;100525.44;;;16.58;27.38
68988;BME280;56038;46.080;11.116;2023-02-16T11:30:29;100516.31;;;16.84;28.71
68988;BME280;56038;46.080;11.116;2023-02-16T11:35:40;100499.25;;;17.62;27.11
68988;BME280;56038;46.080;11.116;2023-02-16T11:40:50;100497.09;;;17.70;25.76
68988;BME280;56038;46.080;11.116;2023-02-16T11:46:04;100490.94;;;18.20;25.47
68988;BME280;56038;46.080;11.116;2023-02-16T11:51:08;100479.75;;;18.64;23.79
68988;BME280;56038;46.080;11.116;2023-02-16T11:56:21;100470.28;;;19.51;22.62
68988;BME280;56038;46.080;11.116;2023-02-16T12:01:33;100457.31;;;20.05;22.97
68988;BME280;56038;46.080;11.116;2023-02-16T12:06:50;100438.53;;;20.22;23.62
68988;BME280;56038;46.080;11.116;2023-02-16T12:12:05;100434.75;;;19.98;22.48
68988;BME280;56038;46.080;11.116;2023-02-16T12:17:25;100425.38;;;19.34;23.20
68988;BME280;56038;46.080;11.116;2023-02-16T12:22:37;100410.00;;;19.10;23.74
68988;BME280;56038;46.080;11.116;2023-02-16T12:27:44;100400.66;;;19.78;23.25
68988;BME280;56038;46.080;11.116;2023-02-16T12:33:17;100395.66;;;19.59;21.72
68988;BME280;56038;46.080;11.116;2023-02-16T12:38:33;100371.47;;;18.75;23.20
68988;BME280;56038;46.080;11.116;2023-02-16T12:43:41;100368.25;;;18.70;24.13
68988;BME280;56038;46.080;11.116;2023-02-16T12:48:47;100373.81;;;19.54;23.45
68988;BME280;56038;46.080;11.116;2023-02-16T12:53:57;100360.00;;;20.74;21.77
68988;BME280;56038;46.080;11.116;2023-02-16T12:59:12;100345.25;;;21.60;20.79
68988;BME280;56038;46.080;11.116;2023-02-16T13:04:20;100343.91;;;21.91;20.08
68988;BME280;56038;46.080;11.116;2023-02-16T13:09:33;100323.97;;;22.46;19.18
68988;BME280;56038;46.080;11.116;2023-02-16T13:14:41;100322.28;;;22.08;20.10
68988;BME280;56038;46.080;11.116;2023-02-16T13:19:45;100308.00;;;21.73;20.96
68988;BME280;56038;46.080;11.116;2023-02-16T13:24:59;100305.69;;;21.17;20.17
68988;BME280;56038;46.080;11.116;2023-02-16T13:30:44;100294.31;;;21.15;20.06
68988;BME280;56038;46.080;11.116;2023-02-16T13:36:10;100292.44;;;20.52;20.63
68988;BME280;56038;46.080;11.116;2023-02-16T13:41:33;100297.34;;;19.48;21.03
68988;BME280;56038;46.080;11.116;2023-02-16T13:46:44;100278.38;;;18.82;23.14
68988;BME280;56038;46.080;11.116;2023-02-16T13:51:49;100275.03;;;18.65;23.90
68988;BME280;56038;46.080;11.116;2023-02-16T13:56:52;100271.81;;;18.44;23.87
68988;BME280;56038;46.080;11.116;2023-02-16T14:01:56;100270.25;;;18.10;24.75
68988;BME280;56038;46.080;11.116;2023-02-16T14:07:19;100257.66;;;17.83;23.60
68988;BME280;56038;46.080;11.116;2023-02-16T14:12:28;100261.72;;;17.57;24.32
68988;BME280;56038;46.080;11.116;2023-02-16T14:17:35;100261.78;;;17.40;25.27
68988;BME280;56038;46.080;11.116;2023-02-16T14:22:49;100256.56;;;17.23;25.62
68988;BME280;56038;46.080;11.116;2023-02-16T14:27:54;100256.38;;;17.26;25.66
68988;BME280;56038;46.080;11.116;2023-02-16T14:33:02;100251.38;;;17.04;26.28
68988;BME280;56038;46.080;11.116;2023-02-16T14:38:16;100248.22;;;16.45;28.68
68988;BME280;56038;46.080;11.116;2023-02-16T14:43:32;100254.88;;;15.82;30.58
68988;BME280;56038;46.080;11.116;2023-02-16T14:54:29;100255.06;;;14.80;32.31
68988;BME280;56038;46.080;11.116;2023-02-16T14:59:43;100261.75;;;14.47;32.89
68988;BME280;56038;46.080;11.116;2023-02-16T15:04:48;100250.97;;;14.11;33.18
68988;BME280;56038;46.080;11.116;2023-02-16T15:09:55;100249.84;;;13.72;34.23
68988;BME280;56038;46.080;11.116;2023-02-16T15:14:59;100253.31;;;13.51;34.36
68988;BME280;56038;46.080;11.116;2023-02-16T15:20:06;100254.19;;;13.28;34.86
68988;BME280;56038;46.080;11.116;2023-02-16T15:25:21;100257.28;;;13.14;36.19
68988;BME280;56038;46.080;11.116;2023-02-16T15:30:26;100261.25;;;13.01;35.31
68988;BME280;56038;46.080;11.116;2023-02-16T15:35:31;100262.47;;;12.91;35.56
68988;BME280;56038;46.080;11.116;2023-02-16T15:40:36;100254.03;;;12.83;35.71
68988;BME280;56038;46.080;11.116;2023-02-16T15:45:38;100251.25;;;12.63;37.26
68988;BME280;56038;46.080;11.116;2023-02-16T15:50:40;100249.41;;;12.40;37.17
68988;BME280;56038;46.080;11.116;2023-02-16T15:55:45;100257.03;;;12.21;38.53
68988;BME280;56038;46.080;11.116;2023-02-16T16:00:47;100258.22;;;12.11;37.98
68988;BME280;56038;46.080;11.116;2023-02-16T16:05:57;100268.31;;;11.95;39.71
68988;BME280;56038;46.080;11.116;2023-02-16T16:11:01;100276.53;;;11.84;38.84
68988;BME280;56038;46.080;11.116;2023-02-16T16:16:03;100284.66;;;11.74;38.48
68988;BME280;56038;46.080;11.116;2023-02-16T16:21:18;100279.09;;;11.56;40.49
68988;BME280;56038;46.080;11.116;2023-02-16T16:26:23;100293.31;;;11.46;40.07
68988;BME280;56038;46.080;11.116;2023-02-16T16:31:39;100303.22;;;11.36;41.97
68988;BME280;56038;46.080;11.116;2023-02-16T16:36:51;100313.00;;;11.28;41.65
68988;BME280;56038;46.080;11.116;2023-02-16T16:42:14;100308.97;;;11.17;43.33
68988;BME280;56038;46.080;11.116;2023-02-16T16:47:22;100322.38;;;11.06;43.23
68988;BME280;56038;46.080;11.116;2023-02-16T16:52:39;100329.59;;;10.96;42.65
68988;BME280;56038;46.080;11.116;2023-02-16T16:57:42;100331.50;;;10.90;41.75
68988;BME280;56038;46.080;11.116;2023-02-16T17:02:44;100338.59;;;11.17;44.13
68988;BME280;56038;46.080;11.116;2023-02-16T17:07:46;100344.53;;;11.24;44.29
68988;BME280;56038;46.080;11.116;2023-02-16T17:12:54;100346.03;;;11.00;43.27
68988;BME280;56038;46.080;11.116;2023-02-16T17:17:57;100357.69;;;10.87;43.71
68988;BME280;56038;46.080;11.116;2023-02-16T17:22:59;100372.00;;;10.73;44.79
68988;BME280;56038;46.080;11.116;2023-02-16T17:28:05;100380.06;;;10.64;44.47
68988;BME280;56038;46.080;11.116;2023-02-16T17:33:08;100384.63;;;10.55;44.84
68988;BME280;56038;46.080;11.116;2023-02-16T17:38:15;100396.91;;;10.51;44.51
68988;BME280;56038;46.080;11.116;2023-02-16T17:43:21;100410.19;;;10.42;45.81
68988;BME280;56038;46.080;11.116;2023-02-16T17:48:25;100397.34;;;10.33;46.57
68988;BME280;56038;46.080;11.116;2023-02-16T17:53:28;100407.03;;;10.28;48.27
68988;BME280;56038;46.080;11.116;2023-02-16T17:58:32;100413.22;;;10.22;46.34
68988;BME280;56038;46.080;11.116;2023-02-16T18:03:33;100416.91;;;10.12;46.85
68988;BME280;56038;46.080;11.116;2023-02-16T18:08:35;100429.16;;;10.10;47.14
68988;BME280;56038;46.080;11.116;2023-02-16T18:13:38;100425.13;;;9.95;47.03
68988;BME280;56038;46.080;11.116;2023-02-16T18:18:40;100433.94;;;9.88;47.08
68988;BME280;56038;46.080;11.116;2023-02-16T18:23:42;100433.22;;;9.81;47.62
68988;BME280;56038;46.080;11.116;2023-02-16T18:28:46;100438.41;;;9.83;47.57
68988;BME280;56038;46.080;11.116;2023-02-16T18:33:48;100442.81;;;9.78;48.74
68988;BME280;56038;46.080;11.116;2023-02-16T18:38:49;100453.41;;;9.72;47.80
68988;BME280;56038;46.080;11.116;2023-02-16T18:43:52;100456.97;;;9.68;47.96
68988;BME280;56038;46.080;11.116;2023-02-16T18:48:54;100455.34;;;9.60;47.95
68988;BME280;56038;46.080;11.116;2023-02-16T18:53:57;100461.63;;;9.50;47.78
68988;BME280;56038;46.080;11.116;2023-02-16T18:59:00;100469.69;;;9.38;48.64
68988;BME280;56038;46.080;11.116;2023-02-16T19:04:02;100474.06;;;9.36;48.17
68988;BME280;56038;46.080;11.116;2023-02-16T19:09:04;100476.66;;;9.36;48.44
68988;BME280;56038;46.080;11.116;2023-02-16T19:14:08;100485.44;;;9.32;49.13
68988;BME280;56038;46.080;11.116;2023-02-16T19:19:11;100486.34;;;9.28;50.91
68988;BME280;56038;46.080;11.116;2023-02-16T19:24:13;100498.75;;;9.15;52.13
68988;BME280;56038;46.080;11.116;2023-02-16T19:29:16;100496.28;;;9.06;51.27
68988;BME280;56038;46.080;11.116;2023-02-16T19:34:18;100501.59;;;8.98;50.54
68988;BME280;56038;46.080;11.116;2023-02-16T19:39:19;100518.53;;;8.72;53.16
68988;BME280;56038;46.080;11.116;2023-02-16T19:44:23;100526.38;;;8.70;50.35
68988;BME280;56038;46.080;11.116;2023-02-16T19:49:24;100535.28;;;8.51;53.00
68988;BME280;56038;46.080;11.116;2023-02-16T19:54:27;100528.47;;;8.42;51.74
68988;BME280;56038;46.080;11.116;2023-02-16T19:59:31;100522.34;;;8.46;51.61
68988;BME280;56038;46.080;11.116;2023-02-16T20:04:33;100535.47;;;8.38;52.27
68988;BME280;56038;46.080;11.116;2023-02-16T20:09:35;100538.94;;;8.37;51.07
68988;BME280;56038;46.080;11.116;2023-02-16T20:14:38;100539.09;;;8.19;52.22
68988;BME280;56038;46.080;11.116;2023-02-16T20:19:40;100542.66;;;8.14;52.61
68988;BME280;56038;46.080;11.116;2023-02-16T20:24:42;100542.81;;;8.00;54.27
68988;BME280;56038;46.080;11.116;2023-02-16T20:29:45;100548.03;;;7.98;53.43
68988;BME280;56038;46.080;11.116;2023-02-16T20:34:47;100555.84;;;7.98;53.98
68988;BME280;56038;46.080;11.116;2023-02-16T20:39:49;100554.03;;;8.03;52.11
68988;BME280;56038;46.080;11.116;2023-02-16T20:44:52;100562.72;;;8.05;52.48
68988;BME280;56038;46.080;11.116;2023-02-16T20:49:54;100552.47;;;7.90;55.29
68988;BME280;56038;46.080;11.116;2023-02-16T20:54:56;100562.88;;;7.90;53.94
68988;BME280;56038;46.080;11.116;2023-02-16T21:00:00;100565.47;;;7.90;54.78
68988;BME280;56038;46.080;11.116;2023-02-16T21:05:04;100566.34;;;7.88;55.20
68988;BME280;56038;46.080;11.116;2023-02-16T21:10:07;100560.28;;;7.87;53.79
68988;BME280;56038;46.080;11.116;2023-02-16T21:15:11;100556.72;;;7.96;53.76
68988;BME280;56038;46.080;11.116;2023-02-16T21:20:13;100558.59;;;7.83;55.83
68988;BME280;56038;46.080;11.116;2023-02-16T21:25:16;100552.63;;;7.73;57.10
68988;BME280;56038;46.080;11.116;2023-02-16T21:30:19;100533.72;;;7.58;56.49
68988;BME280;56038;46.080;11.116;2023-02-16T21:35:22;100544.16;;;7.51;57.17
68988;BME280;56038;46.080;11.116;2023-02-16T21:40:23;100530.34;;;7.45;57.68
68988;BME280;56038;46.080;11.116;2023-02-16T21:45:44;100527.06;;;7.21;58.66
68988;BME280;56038;46.080;11.116;2023-02-16T21:50:47;100545.25;;;7.23;57.50
68988;BME280;56038;46.080;11.116;2023-02-16T21:55:49;100543.47;;;7.30;57.13
68988;BME280;56038;46.080;11.116;2023-02-16T22:01:09;100542.59;;;7.32;56.96
68988;BME280;56038;46.080;11.116;2023-02-16T22:06:11;100552.97;;;7.35;56.44
68988;BME280;56038;46.080;11.116;2023-02-16T22:11:13;100547.75;;;7.37;57.18
68988;BME280;56038;46.080;11.116;2023-02-16T22:16:17;100537.41;;;7.32;56.25
68988;BME280;56038;46.080;11.116;2023-02-16T22:21:19;100549.63;;;7.19;59.13
68988;BME280;56038;46.080;11.116;2023-02-16T22:26:23;100560.97;;;7.11;59.17
68988;BME280;56038;46.080;11.116;2023-02-16T22:31:26;100561.88;;;6.99;59.57
68988;BME280;56038;46.080;11.116;2023-02-16T22:36:28;100565.31;;;7.03;57.33
68988;BME280;56038;46.080;11.116;2023-02-16T22:41:30;100571.38;;;7.05;57.62
68988;BME280;56038;46.080;11.116;2023-02-16T22:46:34;100562.78;;;6.92;59.50
68988;BME280;56038;46.080;11.116;2023-02-16T22:51:35;100563.66;;;6.91;60.34
68988;BME280;56038;46.080;11.116;2023-02-16T22:56:37;100565.41;;;6.87;59.21
68988;BME280;56038;46.080;11.116;2023-02-16T23:01:41;100572.41;;;6.81;59.11
68988;BME280;56038;46.080;11.116;2023-02-16T23:06:43;100568.94;;;6.82;57.88
68988;BME280;56038;46.080;11.116;2023-02-16T23:11:45;100586.22;;;6.78;57.68
68988;BME280;56038;46.080;11.116;2023-02-16T23:16:50;100589.75;;;6.71;58.30
68988;BME280;56038;46.080;11.116;2023-02-16T23:21:53;100588.06;;;6.66;57.85
68988;BME280;56038;46.080;11.116;2023-02-16T23:26:55;100592.41;;;6.57;58.86
68988;BME280;56038;46.080;11.116;2023-02-16T23:31:58;100588.09;;;6.56;58.95
68988;BME280;56038;46.080;11.116;2023-02-16T23:37:00;100584.66;;;6.47;59.66
68988;BME280;56038;46.080;11.116;2023-02-16T23:42:02;100588.16;;;6.38;59.29
68988;BME280;56038;46.080;11.116;2023-02-16T23:47:05;100595.06;;;6.39;59.47
68988;BME280;56038;46.080;11.116;2023-02-16T23:52:07;100588.16;;;6.30;59.57
68988;BME280;56038;46.080;11.116;2023-02-16T23:57:09;100591.69;;;6.16;60.92
